sensor_id;sensor_type;location;lat;lon;timestamp;P1;durP1;ratioP1;P2;durP2;ratioP2
8675;SDS011;4375;52.486;13.424;2023-01-29T00:01:35;20.33;;;6.37;;
8675;SDS011;4375;52.486;13.424;2023-01-29T00:04:01;19.07;;;5.67;;
8675;SDS011;4375;52.486;13.424;2023-01-29T00:06:27;20.57;;;6.50;;
8675;SDS011;4375;52.486;13.424;2023-01-29T00:08:53;20.67;;;6.23;;
8675;SDS011;4375;52.486;13.424;2023-01-29T00:11:18;21.77;;;6.77;;
8675;SDS011;4375;52.486;13.424;2023-01-29T00:13:49;19.88;;;6.30;;
8675;SDS011;4375;52.486;13.424;2023-01-29T00:16:15;21.65;;;5.93;;
8675;SDS011;4375;52.486;13.424;2023-01-29T00:18:41;19.80;;;6.60;;
8675;SDS011;4375;52.486;13.424;2023-01-29T00:21:16;25.17;;;6.50;;
8675;SDS011;4375;52.486;13.424;2023-01-29T00:23:43;20.58;;;6.75;;
8675;SDS011;4375;52.486;13.424;2023-01-29T00:26:10;19.00;;;6.47;;
8675;SDS011;4375;52.486;13.424;2023-01-29T00:28:36;26.03;;;7.47;;
8675;SDS011;4375;52.486;13.424;2023-01-29T00:31:08;28.30;;;8.43;;
8675;SDS011;4375;52.486;13.424;2023-01-29T00:33:38;22.25;;;6.90;;
8675;SDS011;4375;52.486;13.424;2023-01-29T00:36:05;25.20;;;6.70;;
8675;SDS011;4375;52.486;13.424;2023-01-29T00:38:32;22.83;;;7.18;;
8675;SDS011;4375;52.486;13.424;2023-01-29T00:41:08;21.15;;;6.90;;
8675;SDS011;4375;52.486;13.424;2023-01-29T00:43:54;23.15;;;7.45;;
8675;SDS011;4375;52.486;13.424;2023-01-29T00:46:38;20.85;;;6.85;;
8675;SDS011;4375;52.486;13.424;2023-01-29T00:49:04;21.10;;;7.70;;
8675;SDS011;4375;52.486;13.424;2023-01-29T00:51:30;21.98;;;7.40;;
8675;SDS011;4375;52.486;13.424;2023-01-29T00:53:56;21.57;;;7.33;;
8675;SDS011;4375;52.486;13.424;2023-01-29T00:56:29;24.17;;;8.00;;
8675;SDS011;4375;52.486;13.424;2023-01-29T00:58:55;21.25;;;7.32;;
8675;SDS011;4375;52.486;13.424;2023-01-29T01:01:21;25.70;;;8.90;;
8675;SDS011;4375;52.486;13.424;2023-01-29T01:04:06;23.48;;;7.70;;
8675;SDS011;4375;52.486;13.424;2023-01-29T01:06:35;29.02;;;9.05;;
8675;SDS011;4375;52.486;13.424;2023-01-29T01:09:01;26.95;;;8.15;;
8675;SDS011;4375;52.486;13.424;2023-01-29T01:11:46;24.10;;;7.88;;
8675;SDS011;4375;52.486;13.424;2023-01-29T01:14:11;26.63;;;8.63;;
8675;SDS011;4375;52.486;13.424;2023-01-29T01:16:37;23.97;;;8.90;;
8675;SDS011;4375;52.486;13.424;2023-01-29T01:19:03;23.00;;;8.30;;
8675;SDS011;4375;52.486;13.424;2023-01-29T01:21:29;25.58;;;8.20;;
8675;SDS011;4375;52.486;13.424;2023-01-29T01:23:54;24.60;;;8.77;;
8675;SDS011;4375;52.486;13.424;2023-01-29T01:26:20;28.43;;;10.80;;
8675;SDS011;4375;52.486;13.424;2023-01-29T01:28:46;27.43;;;8.70;;
8675;SDS011;4375;52.486;13.424;2023-01-29T01:31:12;25.30;;;9.03;;
8675;SDS011;4375;52.486;13.424;2023-01-29T01:33:39;28.50;;;8.88;;
8675;SDS011;4375;52.486;13.424;2023-01-29T01:36:05;28.00;;;9.87;;
8675;SDS011;4375;52.486;13.424;2023-01-29T01:38:33;27.95;;;9.95;;
8675;SDS011;4375;52.486;13.424;2023-01-29T01:41:09;24.45;;;9.90;;
8675;SDS011;4375;52.486;13.424;2023-01-29T01:43:52;27.02;;;9.10;;
8675;SDS011;4375;52.486;13.424;2023-01-29T01:46:21;24.73;;;8.75;;
8675;SDS011;4375;52.486;13.424;2023-01-29T01:48:50;26.58;;;9.30;;
8675;SDS011;4375;52.486;13.424;2023-01-29T01:51:21;27.13;;;9.65;;
8675;SDS011;4375;52.486;13.424;2023-01-29T01:53:54;24.95;;;9.50;;
8675;SDS011;4375;52.486;13.424;2023-01-29T01:56:28;29.67;;;10.38;;
8675;SDS011;4375;52.486;13.424;2023-01-29T01:59:02;24.40;;;9.55;;
8675;SDS011;4375;52.486;13.424;2023-01-29T02:01:33;26.23;;;9.55;;
8675;SDS011;4375;52.486;13.424;2023-01-29T02:04:21;28.85;;;10.48;;
8675;SDS011;4375;52.486;13.424;2023-01-29T02:07:06;25.95;;;9.63;;
8675;SDS011;4375;52.486;13.424;2023-01-29T02:10:09;29.92;;;10.68;;
8675;SDS011;4375;52.486;13.424;2023-01-29T02:12:38;27.58;;;9.15;;
8675;SDS011;4375;52.486;13.424;2023-01-29T02:15:05;28.08;;;10.73;;
8675;SDS011;4375;52.486;13.424;2023-01-29T02:17:31;28.90;;;9.73;;
8675;SDS011;4375;52.486;13.424;2023-01-29T02:25:49;26.35;;;10.27;;
8675;SDS011;4375;52.486;13.424;2023-01-29T02:31:18;29.88;;;11.15;;
8675;SDS011;4375;52.486;13.424;2023-01-29T02:36:50;26.48;;;9.90;;
8675;SDS011;4375;52.486;13.424;2023-01-29T02:39:30;26.15;;;10.10;;
8675;SDS011;4375;52.486;13.424;2023-01-29T02:42:14;27.15;;;9.73;;
8675;SDS011;4375;52.486;13.424;2023-01-29T02:44:50;25.08;;;8.85;;
8675;SDS011;4375;52.486;13.424;2023-01-29T02:47:22;27.98;;;10.05;;
8675;SDS011;4375;52.486;13.424;2023-01-29T02:52:45;27.50;;;10.45;;
8675;SDS011;4375;52.486;13.424;2023-01-29T02:55:31;25.02;;;10.10;;
8675;SDS011;4375;52.486;13.424;2023-01-29T02:58:04;29.17;;;9.88;;
8675;SDS011;4375;52.486;13.424;2023-01-29T03:00:37;29.58;;;11.05;;
8675;SDS011;4375;52.486;13.424;2023-01-29T03:03:20;31.20;;;11.25;;
8675;SDS011;4375;52.486;13.424;2023-01-29T03:08:49;27.17;;;8.60;;
8675;SDS011;4375;52.486;13.424;2023-01-29T03:11:22;27.85;;;9.88;;
8675;SDS011;4375;52.486;13.424;2023-01-29T03:13:50;24.20;;;9.23;;
8675;SDS011;4375;52.486;13.424;2023-01-29T03:19:01;29.35;;;10.75;;
8675;SDS011;4375;52.486;13.424;2023-01-29T03:21:36;27.42;;;10.95;;
8675;SDS011;4375;52.486;13.424;2023-01-29T03:24:16;27.17;;;9.55;;
8675;SDS011;4375;52.486;13.424;2023-01-29T03:27:11;28.95;;;10.10;;
8675;SDS011;4375;52.486;13.424;2023-01-29T03:29:59;29.05;;;10.25;;
8675;SDS011;4375;52.486;13.424;2023-01-29T03:32:44;22.10;;;8.70;;
8675;SDS011;4375;52.486;13.424;2023-01-29T03:35:13;25.63;;;9.57;;
8675;SDS011;4375;52.486;13.424;2023-01-29T03:37:45;27.10;;;11.07;;
8675;SDS011;4375;52.486;13.424;2023-01-29T03:40:12;29.33;;;11.48;;
8675;SDS011;4375;52.486;13.424;2023-01-29T03:45:35;29.83;;;11.95;;
8675;SDS011;4375;52.486;13.424;2023-01-29T03:53:29;28.60;;;10.80;;
8675;SDS011;4375;52.486;13.424;2023-01-29T03:56:13;33.45;;;11.55;;
8675;SDS011;4375;52.486;13.424;2023-01-29T03:58:58;30.83;;;11.25;;
8675;SDS011;4375;52.486;13.424;2023-01-29T04:01:45;30.55;;;10.90;;
8675;SDS011;4375;52.486;13.424;2023-01-29T04:04:37;27.35;;;10.35;;
8675;SDS011;4375;52.486;13.424;2023-01-29T04:07:18;29.48;;;10.85;;
8675;SDS011;4375;52.486;13.424;2023-01-29T04:12:36;27.33;;;11.35;;
8675;SDS011;4375;52.486;13.424;2023-01-29T04:15:07;28.38;;;11.73;;
8675;SDS011;4375;52.486;13.424;2023-01-29T04:17:38;26.90;;;10.40;;
8675;SDS011;4375;52.486;13.424;2023-01-29T04:20:06;30.17;;;11.30;;
8675;SDS011;4375;52.486;13.424;2023-01-29T04:22:34;27.40;;;11.43;;
8675;SDS011;4375;52.486;13.424;2023-01-29T04:25:11;26.20;;;9.45;;
8675;SDS011;4375;52.486;13.424;2023-01-29T04:27:44;27.20;;;10.00;;
8675;SDS011;4375;52.486;13.424;2023-01-29T04:36:07;30.20;;;10.27;;
8675;SDS011;4375;52.486;13.424;2023-01-29T04:38:49;30.13;;;11.95;;
8675;SDS011;4375;52.486;13.424;2023-01-29T04:41:37;29.55;;;11.32;;
8675;SDS011;4375;52.486;13.424;2023-01-29T04:52:41;33.00;;;12.02;;
8675;SDS011;4375;52.486;13.424;2023-01-29T04:57:54;31.38;;;11.30;;
8675;SDS011;4375;52.486;13.424;2023-01-29T05:00:45;31.33;;;11.48;;
8675;SDS011;4375;52.486;13.424;2023-01-29T05:03:14;33.83;;;11.48;;
8675;SDS011;4375;52.486;13.424;2023-01-29T05:05:42;30.15;;;12.35;;
8675;SDS011;4375;52.486;13.424;2023-01-29T05:08:11;30.40;;;11.40;;
8675;SDS011;4375;52.486;13.424;2023-01-29T05:10:39;29.27;;;11.55;;
8675;SDS011;4375;52.486;13.424;2023-01-29T05:13:07;29.35;;;10.52;;
8675;SDS011;4375;52.486;13.424;2023-01-29T05:15:48;33.60;;;10.65;;
8675;SDS011;4375;52.486;13.424;2023-01-29T05:18:18;32.38;;;11.90;;
8675;SDS011;4375;52.486;13.424;2023-01-29T05:20:44;30.63;;;11.93;;
8675;SDS011;4375;52.486;13.424;2023-01-29T05:23:20;34.83;;;14.07;;
8675;SDS011;4375;52.486;13.424;2023-01-29T05:25:47;33.72;;;11.70;;
8675;SDS011;4375;52.486;13.424;2023-01-29T05:28:14;34.42;;;12.80;;
8675;SDS011;4375;52.486;13.424;2023-01-29T05:30:46;29.48;;;10.80;;
8675;SDS011;4375;52.486;13.424;2023-01-29T05:33:14;32.03;;;13.48;;
8675;SDS011;4375;52.486;13.424;2023-01-29T05:35:40;30.33;;;11.60;;
8675;SDS011;4375;52.486;13.424;2023-01-29T05:38:06;32.58;;;12.38;;
8675;SDS011;4375;52.486;13.424;2023-01-29T05:40:32;34.10;;;12.90;;
8675;SDS011;4375;52.486;13.424;2023-01-29T05:42:58;32.33;;;13.33;;
8675;SDS011;4375;52.486;13.424;2023-01-29T05:45:23;37.03;;;13.47;;
8675;SDS011;4375;52.486;13.424;2023-01-29T05:47:49;30.20;;;12.70;;
8675;SDS011;4375;52.486;13.424;2023-01-29T05:50:15;33.30;;;11.83;;
8675;SDS011;4375;52.486;13.424;2023-01-29T05:52:41;33.63;;;13.37;;
8675;SDS011;4375;52.486;13.424;2023-01-29T05:55:07;32.07;;;11.60;;
8675;SDS011;4375;52.486;13.424;2023-01-29T05:57:34;31.13;;;11.00;;
8675;SDS011;4375;52.486;13.424;2023-01-29T05:59:59;30.97;;;12.13;;
8675;SDS011;4375;52.486;13.424;2023-01-29T06:02:27;33.80;;;12.00;;
8675;SDS011;4375;52.486;13.424;2023-01-29T06:04:53;32.38;;;12.13;;
8675;SDS011;4375;52.486;13.424;2023-01-29T06:07:19;34.00;;;12.63;;
8675;SDS011;4375;52.486;13.424;2023-01-29T06:09:45;31.27;;;13.10;;
8675;SDS011;4375;52.486;13.424;2023-01-29T06:12:10;35.30;;;13.03;;
8675;SDS011;4375;52.486;13.424;2023-01-29T06:14:36;33.63;;;12.70;;
8675;SDS011;4375;52.486;13.424;2023-01-29T06:17:02;36.97;;;13.00;;
8675;SDS011;4375;52.486;13.424;2023-01-29T06:19:28;34.20;;;14.15;;
8675;SDS011;4375;52.486;13.424;2023-01-29T06:21:54;34.63;;;12.87;;
8675;SDS011;4375;52.486;13.424;2023-01-29T06:24:20;37.03;;;14.07;;
8675;SDS011;4375;52.486;13.424;2023-01-29T06:26:48;38.63;;;16.00;;
8675;SDS011;4375;52.486;13.424;2023-01-29T06:29:20;35.30;;;13.32;;
8675;SDS011;4375;52.486;13.424;2023-01-29T06:31:54;38.10;;;14.30;;
8675;SDS011;4375;52.486;13.424;2023-01-29T06:34:22;34.70;;;14.05;;
8675;SDS011;4375;52.486;13.424;2023-01-29T06:36:50;35.85;;;13.43;;
8675;SDS011;4375;52.486;13.424;2023-01-29T06:39:31;34.15;;;14.02;;
8675;SDS011;4375;52.486;13.424;2023-01-29T06:42:02;34.35;;;12.45;;
8675;SDS011;4375;52.486;13.424;2023-01-29T06:44:36;55.25;;;15.90;;
8675;SDS011;4375;52.486;13.424;2023-01-29T06:47:14;32.03;;;13.55;;
8675;SDS011;4375;52.486;13.424;2023-01-29T06:50:03;35.95;;;14.77;;
8675;SDS011;4375;52.486;13.424;2023-01-29T06:52:41;40.35;;;15.20;;
8675;SDS011;4375;52.486;13.424;2023-01-29T06:55:19;41.25;;;14.57;;
8675;SDS011;4375;52.486;13.424;2023-01-29T06:57:52;39.83;;;14.95;;
8675;SDS011;4375;52.486;13.424;2023-01-29T07:00:23;33.75;;;13.93;;
8675;SDS011;4375;52.486;13.424;2023-01-29T07:03:04;36.40;;;14.45;;
8675;SDS011;4375;52.486;13.424;2023-01-29T07:05:57;37.90;;;13.85;;
8675;SDS011;4375;52.486;13.424;2023-01-29T07:08:38;36.38;;;14.15;;
8675;SDS011;4375;52.486;13.424;2023-01-29T07:11:14;34.25;;;13.75;;
8675;SDS011;4375;52.486;13.424;2023-01-29T07:17:24;37.85;;;14.27;;
8675;SDS011;4375;52.486;13.424;2023-01-29T07:20:08;33.92;;;13.00;;
8675;SDS011;4375;52.486;13.424;2023-01-29T07:22:34;37.75;;;15.02;;
8675;SDS011;4375;52.486;13.424;2023-01-29T07:25:00;36.93;;;14.13;;
8675;SDS011;4375;52.486;13.424;2023-01-29T07:27:26;37.20;;;15.47;;
8675;SDS011;4375;52.486;13.424;2023-01-29T07:29:51;37.03;;;14.40;;
8675;SDS011;4375;52.486;13.424;2023-01-29T07:32:17;36.80;;;12.73;;
8675;SDS011;4375;52.486;13.424;2023-01-29T07:34:43;32.37;;;14.50;;
8675;SDS011;4375;52.486;13.424;2023-01-29T07:37:08;39.17;;;14.23;;
8675;SDS011;4375;52.486;13.424;2023-01-29T07:39:35;39.47;;;15.35;;
8675;SDS011;4375;52.486;13.424;2023-01-29T07:42:00;37.00;;;14.10;;
8675;SDS011;4375;52.486;13.424;2023-01-29T07:44:26;41.93;;;15.40;;
8675;SDS011;4375;52.486;13.424;2023-01-29T07:46:52;37.10;;;14.33;;
8675;SDS011;4375;52.486;13.424;2023-01-29T07:49:17;38.10;;;12.80;;
8675;SDS011;4375;52.486;13.424;2023-01-29T07:51:43;38.20;;;14.30;;
8675;SDS011;4375;52.486;13.424;2023-01-29T07:54:08;37.17;;;15.53;;
8675;SDS011;4375;52.486;13.424;2023-01-29T07:56:34;34.83;;;14.27;;
8675;SDS011;4375;52.486;13.424;2023-01-29T07:58:59;40.07;;;16.03;;
8675;SDS011;4375;52.486;13.424;2023-01-29T08:01:25;35.50;;;13.47;;
8675;SDS011;4375;52.486;13.424;2023-01-29T08:03:51;44.30;;;15.77;;
8675;SDS011;4375;52.486;13.424;2023-01-29T08:06:16;39.90;;;14.47;;
8675;SDS011;4375;52.486;13.424;2023-01-29T08:08:43;36.75;;;15.05;;
8675;SDS011;4375;52.486;13.424;2023-01-29T08:11:08;33.80;;;13.17;;
8675;SDS011;4375;52.486;13.424;2023-01-29T08:13:34;43.73;;;15.63;;
8675;SDS011;4375;52.486;13.424;2023-01-29T08:16:00;39.47;;;16.00;;
8675;SDS011;4375;52.486;13.424;2023-01-29T08:18:26;37.42;;;14.73;;
8675;SDS011;4375;52.486;13.424;2023-01-29T08:20:52;36.83;;;14.80;;
8675;SDS011;4375;52.486;13.424;2023-01-29T08:23:23;37.63;;;16.05;;
8675;SDS011;4375;52.486;13.424;2023-01-29T08:25:49;40.10;;;16.00;;
8675;SDS011;4375;52.486;13.424;2023-01-29T08:28:14;40.73;;;17.20;;
8675;SDS011;4375;52.486;13.424;2023-01-29T08:30:40;38.63;;;14.57;;
8675;SDS011;4375;52.486;13.424;2023-01-29T08:33:05;46.70;;;15.00;;
8675;SDS011;4375;52.486;13.424;2023-01-29T08:35:31;42.80;;;15.03;;
8675;SDS011;4375;52.486;13.424;2023-01-29T08:37:58;33.67;;;14.67;;
8675;SDS011;4375;52.486;13.424;2023-01-29T08:40:25;36.15;;;14.60;;
8675;SDS011;4375;52.486;13.424;2023-01-29T08:42:51;35.17;;;15.07;;
8675;SDS011;4375;52.486;13.424;2023-01-29T08:45:17;42.40;;;16.70;;
8675;SDS011;4375;52.486;13.424;2023-01-29T08:47:46;37.07;;;15.00;;
8675;SDS011;4375;52.486;13.424;2023-01-29T08:50:13;42.28;;;16.27;;
8675;SDS011;4375;52.486;13.424;2023-01-29T08:52:41;38.47;;;14.73;;
8675;SDS011;4375;52.486;13.424;2023-01-29T08:55:07;40.47;;;15.07;;
8675;SDS011;4375;52.486;13.424;2023-01-29T08:57:33;38.50;;;14.43;;
8675;SDS011;4375;52.486;13.424;2023-01-29T08:59:58;45.27;;;14.43;;
8675;SDS011;4375;52.486;13.424;2023-01-29T09:02:24;37.13;;;13.73;;
8675;SDS011;4375;52.486;13.424;2023-01-29T09:04:50;39.77;;;16.13;;
8675;SDS011;4375;52.486;13.424;2023-01-29T09:07:15;38.40;;;15.60;;
8675;SDS011;4375;52.486;13.424;2023-01-29T09:09:41;39.13;;;13.80;;
8675;SDS011;4375;52.486;13.424;2023-01-29T09:12:06;36.67;;;14.20;;
8675;SDS011;4375;52.486;13.424;2023-01-29T09:14:32;39.47;;;15.10;;
8675;SDS011;4375;52.486;13.424;2023-01-29T09:16:58;40.50;;;15.77;;
8675;SDS011;4375;52.486;13.424;2023-01-29T09:19:23;43.77;;;16.17;;
8675;SDS011;4375;52.486;13.424;2023-01-29T09:21:49;36.60;;;15.20;;
8675;SDS011;4375;52.486;13.424;2023-01-29T09:24:14;40.37;;;15.90;;
8675;SDS011;4375;52.486;13.424;2023-01-29T09:26:40;38.07;;;14.37;;
8675;SDS011;4375;52.486;13.424;2023-01-29T09:29:07;35.20;;;13.77;;
8675;SDS011;4375;52.486;13.424;2023-01-29T09:31:34;41.08;;;15.70;;
8675;SDS011;4375;52.486;13.424;2023-01-29T09:34:00;39.50;;;15.63;;
8675;SDS011;4375;52.486;13.424;2023-01-29T09:36:25;41.30;;;14.60;;
8675;SDS011;4375;52.486;13.424;2023-01-29T09:38:51;43.70;;;15.10;;
8675;SDS011;4375;52.486;13.424;2023-01-29T09:43:56;37.50;;;14.95;;
8675;SDS011;4375;52.486;13.424;2023-01-29T09:46:33;41.83;;;14.77;;
8675;SDS011;4375;52.486;13.424;2023-01-29T09:49:19;38.10;;;15.43;;
8675;SDS011;4375;52.486;13.424;2023-01-29T09:51:46;35.45;;;13.93;;
8675;SDS011;4375;52.486;13.424;2023-01-29T09:54:26;42.37;;;13.23;;
8675;SDS011;4375;52.486;13.424;2023-01-29T09:56:57;34.90;;;13.70;;
8675;SDS011;4375;52.486;13.424;2023-01-29T09:59:29;37.30;;;15.30;;
8675;SDS011;4375;52.486;13.424;2023-01-29T10:04:47;33.87;;;14.30;;
8675;SDS011;4375;52.486;13.424;2023-01-29T10:13:01;34.53;;;12.93;;
8675;SDS011;4375;52.486;13.424;2023-01-29T10:18:58;32.50;;;12.73;;
8675;SDS011;4375;52.486;13.424;2023-01-29T10:21:46;30.50;;;11.47;;
8675;SDS011;4375;52.486;13.424;2023-01-29T10:24:35;35.73;;;12.17;;
8675;SDS011;4375;52.486;13.424;2023-01-29T10:27:25;32.20;;;12.70;;
8675;SDS011;4375;52.486;13.424;2023-01-29T10:29:51;35.70;;;13.37;;
8675;SDS011;4375;52.486;13.424;2023-01-29T10:32:20;37.63;;;13.73;;
8675;SDS011;4375;52.486;13.424;2023-01-29T10:34:51;35.33;;;12.80;;
8675;SDS011;4375;52.486;13.424;2023-01-29T10:37:33;35.70;;;13.40;;
8675;SDS011;4375;52.486;13.424;2023-01-29T10:42:57;32.13;;;12.83;;
8675;SDS011;4375;52.486;13.424;2023-01-29T11:03:37;29.90;;;10.60;;
8675;SDS011;4375;52.486;13.424;2023-01-29T11:12:51;31.43;;;10.67;;
8675;SDS011;4375;52.486;13.424;2023-01-29T11:16:14;27.70;;;10.70;;
8675;SDS011;4375;52.486;13.424;2023-01-29T11:26:06;29.30;;;11.90;;
8675;SDS011;4375;52.486;13.424;2023-01-29T11:28:50;28.63;;;10.50;;
8675;SDS011;4375;52.486;13.424;2023-01-29T11:31:51;27.80;;;10.60;;
8675;SDS011;4375;52.486;13.424;2023-01-29T11:37:42;28.57;;;10.53;;
8675;SDS011;4375;52.486;13.424;2023-01-29T11:42:47;29.57;;;10.20;;
8675;SDS011;4375;52.486;13.424;2023-01-29T11:47:48;25.80;;;9.03;;
8675;SDS011;4375;52.486;13.424;2023-01-29T11:50:29;25.53;;;9.43;;
8675;SDS011;4375;52.486;13.424;2023-01-29T11:52:59;26.77;;;9.27;;
8675;SDS011;4375;52.486;13.424;2023-01-29T11:55:29;25.10;;;9.57;;
8675;SDS011;4375;52.486;13.424;2023-01-29T11:58:00;28.03;;;9.23;;
8675;SDS011;4375;52.486;13.424;2023-01-29T12:00:40;28.83;;;10.40;;
8675;SDS011;4375;52.486;13.424;2023-01-29T12:06:02;25.97;;;9.27;;
8675;SDS011;4375;52.486;13.424;2023-01-29T12:08:31;28.10;;;9.27;;
8675;SDS011;4375;52.486;13.424;2023-01-29T12:11:12;26.00;;;9.17;;
8675;SDS011;4375;52.486;13.424;2023-01-29T12:13:56;25.40;;;8.43;;
8675;SDS011;4375;52.486;13.424;2023-01-29T12:21:47;27.60;;;9.70;;
8675;SDS011;4375;52.486;13.424;2023-01-29T12:30:08;25.30;;;8.70;;
8675;SDS011;4375;52.486;13.424;2023-01-29T12:35:49;29.77;;;9.87;;
8675;SDS011;4375;52.486;13.424;2023-01-29T12:38:29;25.33;;;9.33;;
8675;SDS011;4375;52.486;13.424;2023-01-29T12:43:28;26.27;;;9.10;;
8675;SDS011;4375;52.486;13.424;2023-01-29T12:45:59;27.43;;;9.10;;
8675;SDS011;4375;52.486;13.424;2023-01-29T12:48:30;27.93;;;9.50;;
8675;SDS011;4375;52.486;13.424;2023-01-29T12:51:13;28.20;;;10.40;;
8675;SDS011;4375;52.486;13.424;2023-01-29T12:53:44;29.03;;;9.73;;
8675;SDS011;4375;52.486;13.424;2023-01-29T12:56:44;24.93;;;8.93;;
8675;SDS011;4375;52.486;13.424;2023-01-29T12:59:45;27.57;;;9.00;;
8675;SDS011;4375;52.486;13.424;2023-01-29T13:05:53;28.43;;;11.00;;
8675;SDS011;4375;52.486;13.424;2023-01-29T13:39:25;32.77;;;9.60;;
8675;SDS011;4375;52.486;13.424;2023-01-29T13:52:56;29.37;;;9.40;;
8675;SDS011;4375;52.486;13.424;2023-01-29T13:55:38;26.80;;;9.27;;
8675;SDS011;4375;52.486;13.424;2023-01-29T14:01:23;26.43;;;10.00;;
8675;SDS011;4375;52.486;13.424;2023-01-29T14:08:35;28.10;;;10.90;;
8675;SDS011;4375;52.486;13.424;2023-01-29T14:15:20;26.80;;;9.83;;
8675;SDS011;4375;52.486;13.424;2023-01-29T14:24:31;29.23;;;10.77;;
8675;SDS011;4375;52.486;13.424;2023-01-29T14:27:30;28.50;;;10.93;;
8675;SDS011;4375;52.486;13.424;2023-01-29T14:30:50;35.90;;;11.27;;
8675;SDS011;4375;52.486;13.424;2023-01-29T14:33:30;31.40;;;10.60;;
8675;SDS011;4375;52.486;13.424;2023-01-29T14:38:58;30.40;;;11.70;;
8675;SDS011;4375;52.486;13.424;2023-01-29T14:54:22;34.97;;;12.43;;
8675;SDS011;4375;52.486;13.424;2023-01-29T14:56:55;36.13;;;13.73;;
8675;SDS011;4375;52.486;13.424;2023-01-29T14:59:42;33.70;;;12.33;;
8675;SDS011;4375;52.486;13.424;2023-01-29T15:02:29;32.83;;;12.50;;
8675;SDS011;4375;52.486;13.424;2023-01-29T15:05:26;31.70;;;12.07;;
8675;SDS011;4375;52.486;13.424;2023-01-29T15:22:00;33.83;;;12.73;;
8675;SDS011;4375;52.486;13.424;2023-01-29T15:41:42;40.43;;;13.73;;
8675;SDS011;4375;52.486;13.424;2023-01-29T15:45:18;30.70;;;12.43;;
8675;SDS011;4375;52.486;13.424;2023-01-29T15:54:38;38.42;;;13.45;;
8675;SDS011;4375;52.486;13.424;2023-01-29T15:57:26;33.50;;;12.40;;
8675;SDS011;4375;52.486;13.424;2023-01-29T16:01:10;29.80;;;10.90;;
8675;SDS011;4375;52.486;13.424;2023-01-29T16:03:38;29.60;;;11.40;;
8675;SDS011;4375;52.486;13.424;2023-01-29T16:10:10;30.93;;;12.50;;
8675;SDS011;4375;52.486;13.424;2023-01-29T16:13:32;34.20;;;13.90;;
8675;SDS011;4375;52.486;13.424;2023-01-29T16:23:50;31.88;;;13.10;;
8675;SDS011;4375;52.486;13.424;2023-01-29T16:26:45;33.30;;;12.37;;
8675;SDS011;4375;52.486;13.424;2023-01-29T16:30:16;27.77;;;11.60;;
8675;SDS011;4375;52.486;13.424;2023-01-29T16:33:13;31.40;;;12.90;;
8675;SDS011;4375;52.486;13.424;2023-01-29T16:36:31;39.87;;;14.17;;
8675;SDS011;4375;52.486;13.424;2023-01-29T16:52:37;35.37;;;12.90;;
8675;SDS011;4375;52.486;13.424;2023-01-29T16:55:46;31.73;;;11.80;;
8675;SDS011;4375;52.486;13.424;2023-01-29T16:58:42;37.63;;;13.83;;
8675;SDS011;4375;52.486;13.424;2023-01-29T17:01:29;34.25;;;13.30;;
8675;SDS011;4375;52.486;13.424;2023-01-29T17:04:17;33.50;;;13.17;;
8675;SDS011;4375;52.486;13.424;2023-01-29T17:06:48;36.83;;;12.52;;
8675;SDS011;4375;52.486;13.424;2023-01-29T17:12:23;32.90;;;13.97;;
8675;SDS011;4375;52.486;13.424;2023-01-29T17:15:03;33.97;;;14.60;;
8675;SDS011;4375;52.486;13.424;2023-01-29T17:17:57;35.85;;;13.90;;
8675;SDS011;4375;52.486;13.424;2023-01-29T17:20:25;36.13;;;13.73;;
8675;SDS011;4375;52.486;13.424;2023-01-29T17:22:54;37.22;;;13.18;;
8675;SDS011;4375;52.486;13.424;2023-01-29T17:26:12;35.50;;;13.50;;
8675;SDS011;4375;52.486;13.424;2023-01-29T17:28:58;34.37;;;14.17;;
8675;SDS011;4375;52.486;13.424;2023-01-29T17:31:34;32.38;;;13.88;;
8675;SDS011;4375;52.486;13.424;2023-01-29T17:34:12;33.45;;;13.38;;
8675;SDS011;4375;52.486;13.424;2023-01-29T17:36:59;32.42;;;13.65;;
8675;SDS011;4375;52.486;13.424;2023-01-29T17:39:32;34.03;;;12.30;;
8675;SDS011;4375;52.486;13.424;2023-01-29T17:45:05;31.97;;;12.43;;
8675;SDS011;4375;52.486;13.424;2023-01-29T17:47:42;33.17;;;13.37;;
8675;SDS011;4375;52.486;13.424;2023-01-29T17:50:20;34.90;;;13.10;;
8675;SDS011;4375;52.486;13.424;2023-01-29T17:52:59;34.42;;;13.32;;
8675;SDS011;4375;52.486;13.424;2023-01-29T17:55:44;35.03;;;12.70;;
8675;SDS011;4375;52.486;13.424;2023-01-29T17:58:33;31.03;;;12.53;;
8675;SDS011;4375;52.486;13.424;2023-01-29T18:01:21;33.63;;;12.75;;
8675;SDS011;4375;52.486;13.424;2023-01-29T18:04:15;30.67;;;12.60;;
8675;SDS011;4375;52.486;13.424;2023-01-29T18:06:45;32.97;;;12.25;;
8675;SDS011;4375;52.486;13.424;2023-01-29T18:09:25;29.70;;;11.07;;
8675;SDS011;4375;52.486;13.424;2023-01-29T18:11:58;31.15;;;12.50;;
8675;SDS011;4375;52.486;13.424;2023-01-29T18:14:36;35.58;;;12.65;;
8675;SDS011;4375;52.486;13.424;2023-01-29T18:17:04;31.42;;;11.98;;
8675;SDS011;4375;52.486;13.424;2023-01-29T18:19:34;31.58;;;11.20;;
8675;SDS011;4375;52.486;13.424;2023-01-29T18:22:08;33.22;;;13.38;;
8675;SDS011;4375;52.486;13.424;2023-01-29T18:25:09;32.45;;;12.20;;
8675;SDS011;4375;52.486;13.424;2023-01-29T18:27:40;26.98;;;10.25;;
8675;SDS011;4375;52.486;13.424;2023-01-29T18:30:06;33.87;;;13.53;;
8675;SDS011;4375;52.486;13.424;2023-01-29T18:32:32;30.48;;;12.95;;
8675;SDS011;4375;52.486;13.424;2023-01-29T18:34:58;31.43;;;11.70;;
8675;SDS011;4375;52.486;13.424;2023-01-29T18:37:24;36.90;;;11.93;;
8675;SDS011;4375;52.486;13.424;2023-01-29T18:39:49;31.57;;;11.10;;
8675;SDS011;4375;52.486;13.424;2023-01-29T18:42:15;30.80;;;11.70;;
8675;SDS011;4375;52.486;13.424;2023-01-29T18:44:41;27.10;;;10.07;;
8675;SDS011;4375;52.486;13.424;2023-01-29T18:47:07;30.70;;;12.50;;
8675;SDS011;4375;52.486;13.424;2023-01-29T18:49:32;31.20;;;11.10;;
8675;SDS011;4375;52.486;13.424;2023-01-29T18:52:02;28.70;;;11.35;;
8675;SDS011;4375;52.486;13.424;2023-01-29T18:54:28;33.40;;;12.13;;
8675;SDS011;4375;52.486;13.424;2023-01-29T18:56:54;27.17;;;10.00;;
8675;SDS011;4375;52.486;13.424;2023-01-29T18:59:20;29.70;;;11.60;;
8675;SDS011;4375;52.486;13.424;2023-01-29T19:01:45;30.10;;;10.70;;
8675;SDS011;4375;52.486;13.424;2023-01-29T19:04:11;27.37;;;10.67;;
8675;SDS011;4375;52.486;13.424;2023-01-29T19:06:36;34.20;;;12.43;;
8675;SDS011;4375;52.486;13.424;2023-01-29T19:09:02;30.48;;;11.25;;
8675;SDS011;4375;52.486;13.424;2023-01-29T19:11:28;28.70;;;11.63;;
8675;SDS011;4375;52.486;13.424;2023-01-29T19:13:54;29.70;;;10.83;;
8675;SDS011;4375;52.486;13.424;2023-01-29T19:16:19;30.63;;;10.77;;
8675;SDS011;4375;52.486;13.424;2023-01-29T19:18:45;30.43;;;10.67;;
8675;SDS011;4375;52.486;13.424;2023-01-29T19:21:12;27.50;;;10.87;;
8675;SDS011;4375;52.486;13.424;2023-01-29T19:23:40;33.70;;;11.55;;
8675;SDS011;4375;52.486;13.424;2023-01-29T19:26:07;30.80;;;11.75;;
8675;SDS011;4375;52.486;13.424;2023-01-29T19:28:33;27.83;;;10.70;;
8675;SDS011;4375;52.486;13.424;2023-01-29T19:30:59;27.30;;;10.17;;
8675;SDS011;4375;52.486;13.424;2023-01-29T19:33:25;28.92;;;10.85;;
8675;SDS011;4375;52.486;13.424;2023-01-29T19:35:55;28.42;;;10.77;;
8675;SDS011;4375;52.486;13.424;2023-01-29T19:38:21;29.35;;;10.60;;
8675;SDS011;4375;52.486;13.424;2023-01-29T19:40:47;27.77;;;10.38;;
8675;SDS011;4375;52.486;13.424;2023-01-29T19:43:13;25.27;;;9.13;;
8675;SDS011;4375;52.486;13.424;2023-01-29T19:45:40;33.45;;;11.95;;
8675;SDS011;4375;52.486;13.424;2023-01-29T19:48:06;26.53;;;10.67;;
8675;SDS011;4375;52.486;13.424;2023-01-29T19:50:31;28.83;;;10.33;;
8675;SDS011;4375;52.486;13.424;2023-01-29T19:52:57;27.13;;;10.30;;
8675;SDS011;4375;52.486;13.424;2023-01-29T19:55:23;27.73;;;11.07;;